Time;durP1;ratioP1;P1;durP2;ratioP2;P2;SDS_P1;SDS_P2;PMS_P1;PMS_P2;Temp;Humidity;BMP_temperature;BMP_pressure;BME280_temperature;BME280_humidity;BME280_pressure;Samples;Min_cycle;Max_cycle;Signal;HPM_P1;HPM_P2
2021/07/26 00:02:00;;;;;;;17.67;14.00;;;;;;;20.22;62.63;97383.44;126964;1092;62641;-73
2021/07/26 00:04:27;;;;;;;19.37;14.00;;;;;;;20.19;62.86;97382.41;126943;1092;62572;-73
2021/07/26 00:06:54;;;;;;;17.63;13.80;;;;;;;20.17;62.64;97384.96;127049;1092;62694;-72
2021/07/26 00:09:21;;;;;;;16.03;13.97;;;;;;;20.14;62.89;97382.40;126970;1092;62621;-73
2021/07/26 00:11:48;;;;;;;16.83;14.23;;;;;;;20.10;62.93;97382.63;126985;1092;62566;-72
2021/07/26 00:14:16;;;;;;;16.43;14.20;;;;;;;20.07;63.11;97392.06;126935;1092;62628;-72
2021/07/26 00:16:43;;;;;;;15.40;13.73;;;;;;;20.06;63.13;97396.16;126985;1092;62764;-72
2021/07/26 00:19:10;;;;;;;16.40;14.13;;;;;;;20.05;63.28;97391.81;126947;1092;62684;-71
2021/07/26 00:21:37;;;;;;;17.63;14.33;;;;;;;20.05;63.29;97389.00;127008;1092;62664;-73
2021/07/26 00:24:04;;;;;;;16.83;14.70;;;;;;;20.03;63.32;97388.73;126974;1092;62642;-71
2021/07/26 00:26:31;;;;;;;18.33;14.70;;;;;;;20.02;63.44;97392.83;126963;1092;62639;-73
2021/07/26 00:28:58;;;;;;;17.23;15.43;;;;;;;20.02;63.60;97389.24;126929;1092;62580;-72
2021/07/26 00:31:25;;;;;;;14.95;13.20;;;;;;;20.01;63.52;97399.72;126962;1092;62598;-73
2021/07/26 00:34:27;;;;;;;15.03;13.43;;;;;;;19.97;63.63;97390.77;126993;1092;62604;-73
2021/07/26 00:36:55;;;;;;;18.50;14.27;;;;;;;19.94;63.61;97388.20;127168;1092;62610;-73
2021/07/26 00:39:24;;;;;;;15.80;14.10;;;;;;;19.91;64.04;97384.34;126978;1092;62646;-75
2021/07/26 00:41:51;;;;;;;16.60;13.70;;;;;;;19.88;63.92;97388.16;126998;1092;62751;-73
2021/07/26 00:44:20;;;;;;;16.30;14.33;;;;;;;19.83;64.01;97381.25;126976;1092;62619;-73
2021/07/26 00:46:48;;;;;;;16.23;14.57;;;;;;;19.80;64.21;97375.88;126995;1092;62663;-72
2021/07/26 00:49:16;;;;;;;17.37;14.67;;;;;;;19.74;64.33;97383.48;126957;1092;62935;-73
2021/07/26 00:51:45;;;;;;;18.23;14.43;;;;;;;19.68;64.34;97374.27;127110;1092;62578;-73
2021/07/26 00:54:13;;;;;;;20.03;15.20;;;;;;;19.63;64.63;97372.22;126988;1092;62666;-72
2021/07/26 00:56:40;;;;;;;16.50;14.70;;;;;;;19.59;64.64;97373.23;126973;1092;62621;-73
2021/07/26 00:59:09;;;;;;;18.05;14.80;;;;;;;19.56;64.73;97379.05;126932;1092;62677;-73
2021/07/26 01:01:37;;;;;;;17.23;15.43;;;;;;;19.55;64.86;97369.86;127025;1092;62623;-73
2021/07/26 01:04:04;;;;;;;17.67;15.33;;;;;;;19.53;65.11;97363.19;126985;1092;62958;-73
2021/07/26 01:06:32;;;;;;;18.47;14.10;;;;;;;19.51;65.16;97358.07;127085;1092;62766;-76
2021/07/26 01:08:59;;;;;;;17.03;14.50;;;;;;;19.50;65.16;97362.16;127060;1092;62613;-76
2021/07/26 01:11:26;;;;;;;19.90;15.17;;;;;;;19.46;65.10;97370.05;127023;1092;62659;-74
2021/07/26 01:13:53;;;;;;;17.50;14.80;;;;;;;19.42;65.29;97374.38;127031;1092;62572;-80
2021/07/26 01:16:21;;;;;;;18.13;14.30;;;;;;;19.40;65.15;97377.68;126929;1092;62637;-73
2021/07/26 01:18:48;;;;;;;17.63;15.37;;;;;;;19.38;65.31;97374.58;126945;1092;62620;-73
2021/07/26 01:21:16;;;;;;;18.55;15.30;;;;;;;19.36;65.67;97371.51;126975;1092;62609;-73
2021/07/26 01:23:45;;;;;;;18.03;14.60;;;;;;;19.35;65.58;97378.39;126976;1092;62629;-73
2021/07/26 01:26:13;;;;;;;19.53;14.90;;;;;;;19.35;65.72;97386.81;126946;1092;62620;-74
2021/07/26 01:28:42;;;;;;;21.63;15.17;;;;;;;19.34;65.60;97379.66;126982;1092;62611;-74
2021/07/26 01:31:13;;;;;;;18.13;15.17;;;;;;;19.35;65.89;97377.63;126987;1092;63077;-73
2021/07/26 01:33:41;;;;;;;18.33;13.67;;;;;;;19.35;65.88;97384.02;127418;1092;62619;-72
2021/07/26 01:36:09;;;;;;;19.27;14.47;;;;;;;19.34;65.75;97379.66;127087;1092;62629;-73
2021/07/26 01:38:36;;;;;;;17.40;14.67;;;;;;;19.35;65.73;97384.02;127061;1092;62668;-76
2021/07/26 01:41:11;;;;;;;17.37;14.90;;;;;;;19.34;65.84;97390.89;126959;1092;62710;-74
2021/07/26 01:46:26;;;;;;;18.63;15.43;;;;;;;19.32;65.90;97390.63;127052;1092;62597;-73
2021/07/26 01:49:30;;;;;;;16.83;15.00;;;;;;;19.29;65.79;97395.21;127031;1092;62643;-73
2021/07/26 01:51:57;;;;;;;16.00;14.27;;;;;;;19.28;65.90;97387.30;127004;1092;62625;-73
2021/07/26 01:54:26;;;;;;;18.97;13.97;;;;;;;19.24;66.04;97386.76;126923;1092;62703;-74
2021/07/26 01:56:53;;;;;;;21.90;14.63;;;;;;;19.21;66.00;97382.13;127028;1092;62699;-73
2021/07/26 01:59:20;;;;;;;19.33;14.50;;;;;;;19.18;66.21;97377.52;126972;1092;62898;-74
2021/07/26 02:01:47;;;;;;;16.87;14.97;;;;;;;19.16;66.63;97380.05;127036;1092;62642;-73
2021/07/26 02:04:15;;;;;;;17.47;15.07;;;;;;;19.13;66.54;97381.05;127027;1092;62657;-72
2021/07/26 02:06:43;;;;;;;21.20;14.77;;;;;;;19.10;66.55;97376.45;126918;1092;62633;-72
2021/07/26 02:09:10;;;;;;;17.50;14.30;;;;;;;19.04;66.48;97381.26;126929;1092;62739;-71
2021/07/26 02:11:37;;;;;;;18.00;14.60;;;;;;;18.99;66.67;97383.50;126884;1092;62623;-72
2021/07/26 02:14:09;;;;;;;17.60;14.57;;;;;;;18.94;66.54;97375.05;126946;1092;62605;-72
2021/07/26 02:16:37;;;;;;;17.70;14.40;;;;;;;18.87;66.63;97381.89;126991;1092;62617;-74
2021/07/26 02:19:05;;;;;;;17.57;14.70;;;;;;;18.84;66.80;97388.47;126984;1092;62623;-73
2021/07/26 02:21:32;;;;;;;17.63;14.30;;;;;;;18.82;66.97;97391.00;127078;1092;63169;-76
2021/07/26 02:23:59;;;;;;;16.30;13.97;;;;;;;18.80;67.21;97393.54;126975;1092;62619;-73
2021/07/26 02:26:26;;;;;;;17.60;15.80;;;;;;;18.79;66.98;97402.45;127050;1092;62667;-77
2021/07/26 02:28:53;;;;;;;15.77;14.00;;;;;;;18.78;67.08;97407.30;127116;1092;62616;-73
2021/07/26 02:31:20;;;;;;;16.27;14.57;;;;;;;18.77;67.17;97394.54;126966;1092;62662;-74
2021/07/26 02:33:48;;;;;;;16.53;14.70;;;;;;;18.76;67.28;97404.22;126971;1092;62712;-73
2021/07/26 02:36:15;;;;;;;17.53;14.67;;;;;;;18.75;67.33;97407.53;127004;1092;62632;-75
2021/07/26 02:38:42;;;;;;;21.23;14.90;;;;;;;18.74;67.43;97417.98;127029;1092;63035;-74
2021/07/26 02:41:11;;;;;;;20.07;15.37;;;;;;;18.76;67.47;97412.64;126916;1092;62646;-73
2021/07/26 02:43:38;;;;;;;18.10;15.77;;;;;;;18.76;67.40;97412.64;127009;1092;62703;-76
2021/07/26 02:46:06;;;;;;;20.63;15.63;;;;;;;18.79;67.59;97411.64;126998;1092;62780;-73
2021/07/26 02:48:33;;;;;;;16.90;13.83;;;;;;;18.80;67.69;97410.38;127067;1092;62626;-74
2021/07/26 02:51:00;;;;;;;16.33;14.27;;;;;;;18.78;67.78;97401.69;126984;1092;62587;-73
2021/07/26 02:53:27;;;;;;;18.53;14.83;;;;;;;18.78;67.81;97410.10;126990;1092;62690;-68
2021/07/26 02:55:54;;;;;;;18.75;15.00;;;;;;;18.83;67.80;97414.98;126897;1092;62671;-70
2021/07/26 02:58:21;;;;;;;23.07;15.33;;;;;;;18.87;67.76;97409.95;126941;1092;62738;-66
2021/07/26 03:00:49;;;;;;;19.75;15.10;;;;;;;18.91;67.60;97406.91;126915;1092;62617;-67
2021/07/26 03:03:16;;;;;;;21.77;15.23;;;;;;;18.94;67.48;97395.45;126947;1092;62660;-67
2021/07/26 03:05:43;;;;;;;22.17;14.77;;;;;;;18.97;67.68;97397.27;127003;1092;62617;-67
2021/07/26 03:08:11;;;;;;;16.10;14.23;;;;;;;18.97;67.44;97396.49;126884;1092;62932;-69
2021/07/26 03:10:38;;;;;;;16.43;14.57;;;;;;;18.94;67.33;97387.04;126919;1092;62623;-73
2021/07/26 03:13:05;;;;;;;20.47;14.97;;;;;;;18.91;67.36;97382.42;127045;1092;62617;-71
2021/07/26 03:15:34;;;;;;;16.40;14.70;;;;;;;18.86;67.26;97397.19;127065;1092;62624;-77
2021/07/26 03:18:01;;;;;;;18.30;14.83;;;;;;;18.84;67.19;97405.30;127052;1092;62592;-71
2021/07/26 03:20:29;;;;;;;16.43;14.63;;;;;;;18.83;67.92;97417.02;127210;1092;62602;-78
2021/07/26 03:23:08;;;;;;;17.73;14.57;;;;;;;18.84;67.39;97416.52;127181;1092;62629;-78
2021/07/26 03:25:39;;;;;;;17.63;14.38;;;;;;;18.90;67.48;97431.39;127003;1092;62709;-77
2021/07/26 03:28:07;;;;;;;20.67;14.50;;;;;;;18.95;67.55;97427.86;126995;1092;62823;-75
2021/07/26 03:30:34;;;;;;;16.93;15.13;;;;;;;19.02;67.63;97433.01;126935;1092;62622;-80
2021/07/26 03:33:02;;;;;;;20.77;14.80;;;;;;;19.09;67.58;97436.66;126978;1092;62700;-74
2021/07/26 03:35:29;;;;;;;18.57;14.87;;;;;;;19.13;67.52;97428.77;126960;1092;62706;-77
2021/07/26 03:37:56;;;;;;;20.10;14.70;;;;;;;19.19;67.42;97435.19;126987;1092;62593;-77
2021/07/26 03:40:23;;;;;;;16.00;14.30;;;;;;;19.23;67.22;97452.59;127042;1092;62671;-75
2021/07/26 03:42:51;;;;;;;20.43;14.67;;;;;;;19.31;67.24;97442.44;126976;1092;62630;-77
2021/07/26 03:45:19;;;;;;;20.07;13.57;;;;;;;19.39;67.16;97443.53;126912;1092;62674;-77
2021/07/26 03:47:47;;;;;;;18.27;14.03;;;;;;;19.48;66.98;97450.98;126972;1092;62866;-73
2021/07/26 03:50:14;;;;;;;19.60;14.00;;;;;;;19.57;66.87;97454.41;126982;1092;62628;-70
2021/07/26 03:52:51;;;;;;;19.03;14.57;;;;;;;19.68;66.66;97444.50;127053;1092;62602;-74
2021/07/26 03:58:07;;;;;;;17.03;13.47;;;;;;;19.77;66.46;97461.17;127027;1092;62697;-75
2021/07/26 04:00:34;;;;;;;19.05;13.90;;;;;;;19.87;66.17;97459.68;126942;1092;62589;-78
2021/07/26 04:06:11;;;;;;;16.50;13.17;;;;;;;20.16;65.31;97467.76;126974;1092;61874;-69
2021/07/26 04:08:41;;;;;;;19.03;13.17;;;;;;;20.25;65.02;97471.62;126898;1092;63021;-69
2021/07/26 04:11:15;;;;;;;15.18;12.95;;;;;;;20.33;64.62;97472.69;126941;1092;62641;-69
2021/07/26 04:13:42;;;;;;;13.60;12.20;;;;;;;20.41;64.26;97473.76;126956;1092;63082;-69
2021/07/26 04:16:09;;;;;;;18.50;12.27;;;;;;;20.46;64.17;97481.44;126953;1092;62626;-79
2021/07/26 04:18:37;;;;;;;14.20;12.17;;;;;;;20.52;63.67;97476.63;126996;1092;62672;-77
2021/07/26 04:21:08;;;;;;;19.40;11.97;;;;;;;20.57;63.45;97477.91;126955;1092;62626;-66
2021/07/26 04:23:36;;;;;;;17.27;11.87;;;;;;;20.64;63.28;97483.80;127028;1092;62701;-68
2021/07/26 04:26:06;;;;;;;18.37;11.70;;;;;;;20.61;62.93;97498.12;126991;1092;62647;-69
2021/07/26 04:28:33;;;;;;;15.88;11.55;;;;;;;20.61;63.14;97500.93;127028;1092;62577;-69
2021/07/26 04:31:00;;;;;;;16.47;10.97;;;;;;;20.65;62.88;97505.06;126926;1092;62612;-75
2021/07/26 04:33:27;;;;;;;18.27;11.50;;;;;;;20.80;62.67;97508.41;127016;1092;62620;-74
2021/07/26 04:35:54;;;;;;;14.80;11.43;;;;;;;21.08;62.14;97502.08;126971;1092;62699;-75
2021/07/26 04:38:21;;;;;;;13.33;11.37;;;;;;;21.35;61.35;97498.53;127107;1092;62591;-74
2021/07/26 04:40:48;;;;;;;18.47;11.83;;;;;;;21.49;60.81;97499.56;126941;1092;62631;-73
2021/07/26 04:43:15;;;;;;;15.40;11.80;;;;;;;21.68;60.22;97494.17;127015;1092;62617;-72
2021/07/26 04:45:42;;;;;;;15.10;12.55;;;;;;;22.08;59.25;97492.06;126948;1092;62681;-69
2021/07/26 04:48:10;;;;;;;15.83;11.90;;;;;;;22.99;57.82;97491.97;126885;1092;62664;-72
2021/07/26 04:50:38;;;;;;;15.17;12.43;;;;;;;24.02;55.71;97494.20;126984;1092;62659;-73
2021/07/26 04:53:05;;;;;;;21.00;12.17;;;;;;;24.64;53.85;97492.22;127005;1092;62604;-73
2021/07/26 04:55:32;;;;;;;19.80;11.87;;;;;;;25.15;53.22;97492.31;126936;1092;62620;-72
2021/07/26 04:57:59;;;;;;;14.53;11.43;;;;;;;25.50;51.49;97491.25;127030;1092;62607;-72
2021/07/26 05:00:27;;;;;;;16.43;11.43;;;;;;;26.19;50.60;97492.34;127062;1092;62542;-73
2021/07/26 05:02:54;;;;;;;15.07;10.70;;;;;;;26.94;48.36;97479.75;127131;1092;62640;-77
2021/07/26 05:05:22;;;;;;;19.40;10.40;;;;;;;27.01;47.36;97484.77;126985;1092;62680;-66
2021/07/26 05:07:49;;;;;;;13.30;10.87;;;;;;;26.75;47.07;97474.98;126947;1092;62626;-68
2021/07/26 05:10:16;;;;;;;14.33;10.50;;;;;;;26.46;47.81;97465.52;126981;1092;62613;-74
2021/07/26 05:12:43;;;;;;;12.57;10.10;;;;;;;26.33;48.37;97473.25;127037;1092;62633;-70
2021/07/26 05:15:11;;;;;;;13.77;10.13;;;;;;;26.24;48.33;97465.19;127016;1092;63038;-71
2021/07/26 05:17:38;;;;;;;16.57;9.50;;;;;;;26.16;48.35;97460.16;127047;1092;63086;-73
2021/07/26 05:20:06;;;;;;;16.27;9.80;;;;;;;26.12;48.76;97465.41;126975;1092;62610;-68
2021/07/26 05:22:33;;;;;;;23.07;9.63;;;;;;;26.24;48.67;97459.52;126934;1092;62666;-71
2021/07/26 05:25:00;;;;;;;15.67;9.40;;;;;;;26.36;48.79;97461.59;126927;1092;62671;-65
2021/07/26 05:27:28;;;;;;;16.93;10.47;;;;;;;26.49;48.40;97460.82;126967;1092;62754;-65
2021/07/26 05:29:55;;;;;;;18.53;9.77;;;;;;;26.62;48.06;97460.80;126917;1092;62629;-66
2021/07/26 05:32:22;;;;;;;18.63;9.73;;;;;;;26.72;47.54;97461.86;126946;1092;62578;-68
2021/07/26 05:34:49;;;;;;;24.03;9.57;;;;;;;26.80;47.17;97459.13;126956;1092;62623;-71
2021/07/26 05:37:17;;;;;;;17.13;9.50;;;;;;;26.93;47.16;97470.45;126927;1092;62660;-73
2021/07/26 05:39:44;;;;;;;15.23;9.23;;;;;;;27.16;46.53;97461.44;127029;1092;62616;-74
2021/07/26 05:42:12;;;;;;;19.87;9.30;;;;;;;28.07;44.32;97467.93;126949;1092;62632;-76
2021/07/26 05:44:40;;;;;;;16.40;9.60;;;;;;;29.33;42.26;97468.89;126948;1092;62707;-68
2021/07/26 05:47:10;;;;;;;14.20;8.80;;;;;;;30.04;40.55;97474.86;126891;1092;62906;-76
2021/07/26 05:49:55;;;;;;;16.13;8.93;;;;;;;29.86;40.39;97467.42;126902;1092;62639;-71
2021/07/26 05:52:22;;;;;;;12.47;7.77;;;;;;;29.84;39.45;97464.39;126962;1091;62577;-72
2021/07/26 05:54:49;;;;;;;11.33;7.70;;;;;;;30.01;39.23;97467.42;126928;1092;63044;-72
2021/07/26 05:57:18;;;;;;;11.75;7.55;;;;;;;30.29;38.64;97464.33;127328;1092;62571;-77
2021/07/26 05:59:45;;;;;;;12.73;7.67;;;;;;;30.50;38.09;97466.18;126778;1092;62680;-70
2021/07/26 06:02:12;;;;;;;14.30;7.20;;;;;;;30.73;37.54;97461.19;126884;1092;62635;-75
2021/07/26 06:04:39;;;;;;;11.50;7.07;;;;;;;31.12;37.49;97478.91;126894;1092;62618;-72
2021/07/26 06:07:06;;;;;;;10.80;6.80;;;;;;;31.79;36.62;97476.23;126918;1092;62693;-75
2021/07/26 06:09:34;;;;;;;9.35;6.05;;;;;;;32.67;32.53;97470.76;126914;1092;63076;-72
2021/07/26 06:12:01;;;;;;;8.97;6.13;;;;;;;33.71;30.70;97475.50;126909;1092;62618;-75
2021/07/26 06:14:28;;;;;;;8.77;5.83;;;;;;;34.60;28.42;97481.63;126891;1092;62613;-72
2021/07/26 06:16:57;;;;;;;10.57;6.20;;;;;;;35.48;27.91;97486.70;126970;1092;62591;-73
2021/07/26 06:19:24;;;;;;;9.25;6.03;;;;;;;36.39;26.32;97488.72;126921;1092;62639;-74
2021/07/26 06:21:53;;;;;;;8.00;5.90;;;;;;;37.02;24.95;97485.05;126945;1092;62578;-75
2021/07/26 06:24:21;;;;;;;13.70;6.00;;;;;;;37.71;24.36;97480.82;127165;1092;62645;-71
2021/07/26 06:26:48;;;;;;;10.13;6.07;;;;;;;38.18;24.38;97477.95;126848;1090;62634;-73
2021/07/26 06:29:16;;;;;;;9.75;5.80;;;;;;;38.41;23.39;97480.03;127324;1092;62593;-73
2021/07/26 06:31:44;;;;;;;10.17;5.93;;;;;;;39.03;22.54;97467.77;126897;1092;62621;-71
2021/07/26 06:34:12;;;;;;;10.73;5.97;;;;;;;39.49;21.35;97468.89;126899;1092;62572;-71
2021/07/26 06:36:41;;;;;;;10.57;6.50;;;;;;;39.76;21.33;97471.13;126912;1092;62626;-73
2021/07/26 06:39:09;;;;;;;8.95;5.95;;;;;;;39.87;20.87;97468.13;126839;1092;62619;-71
2021/07/26 06:41:37;;;;;;;8.37;5.53;;;;;;;40.17;21.24;97476.95;126828;1092;62738;-71
2021/07/26 06:44:04;;;;;;;8.45;5.88;;;;;;;40.47;19.96;97474.91;126842;1092;62812;-70
2021/07/26 06:46:32;;;;;;;9.78;5.80;;;;;;;40.90;20.12;97474.92;126944;1090;62590;-71
2021/07/26 06:48:59;;;;;;;10.20;5.50;;;;;;;41.45;19.92;97480.51;126914;1092;62613;-73
2021/07/26 06:51:26;;;;;;;8.85;5.40;;;;;;;41.99;19.20;97484.47;126900;1092;62641;-71
2021/07/26 06:53:54;;;;;;;9.00;6.00;;;;;;;42.45;18.43;97479.27;126823;1092;62671;-69
2021/07/26 06:56:21;;;;;;;7.90;6.23;;;;;;;42.76;18.35;97490.83;126865;1092;62680;-76
2021/07/26 06:58:48;;;;;;;12.97;5.70;;;;;;;43.09;18.28;97483.44;127173;1092;63080;-73
2021/07/26 07:01:16;;;;;;;9.70;5.55;;;;;;;43.45;17.67;97483.44;127104;1092;62536;-71
2021/07/26 07:03:45;;;;;;;8.57;5.73;;;;;;;43.69;16.50;97484.42;126891;1092;62648;-72
2021/07/26 07:06:14;;;;;;;9.40;5.78;;;;;;;43.65;16.85;97478.41;126858;1092;62623;-70
2021/07/26 07:08:41;;;;;;;9.18;6.03;;;;;;;43.80;16.83;97492.12;126934;1092;62771;-70
2021/07/26 07:11:10;;;;;;;8.95;6.15;;;;;;;44.03;16.82;97481.31;126891;1092;62566;-71
2021/07/26 07:13:42;;;;;;;14.20;5.83;;;;;;;44.36;16.50;97484.02;126941;1092;62643;-71
2021/07/26 07:16:16;;;;;;;9.63;5.90;;;;;;;44.40;16.45;97489.98;126846;1092;62641;-72
2021/07/26 07:18:44;;;;;;;10.70;5.70;;;;;;;44.55;16.49;97483.26;126921;1092;62576;-70
2021/07/26 07:21:18;;;;;;;8.70;5.90;;;;;;;44.79;16.15;97488.42;126847;1092;62656;-70
2021/07/26 07:23:46;;;;;;;10.05;6.25;;;;;;;44.75;15.86;97488.30;126897;1092;62632;-71
2021/07/26 07:26:32;;;;;;;9.87;6.00;;;;;;;44.75;16.14;97485.38;126914;1092;62577;-71
2021/07/26 07:29:00;;;;;;;9.73;5.45;;;;;;;45.42;15.83;97478.83;126864;1092;62625;-71
2021/07/26 07:31:27;;;;;;;9.37;5.53;;;;;;;45.68;15.47;97473.83;126901;1092;62602;-72
2021/07/26 07:34:01;;;;;;;7.70;5.50;;;;;;;45.76;15.62;97476.98;126943;1092;62570;-70
2021/07/26 07:36:40;;;;;;;9.10;5.47;;;;;;;46.04;15.44;97476.36;126939;1092;62581;-71
2021/07/26 07:39:10;;;;;;;8.13;5.43;;;;;;;45.10;16.51;97470.52;127032;1092;62620;-72
2021/07/26 07:41:37;;;;;;;10.30;5.45;;;;;;;43.59;16.68;97478.16;127355;1092;62623;-75
2021/07/26 07:44:04;;;;;;;9.05;5.30;;;;;;;43.00;17.53;97481.63;127052;1092;62637;-70
2021/07/26 07:46:31;;;;;;;7.00;5.37;;;;;;;43.94;16.60;97483.91;126929;1092;62569;-70
2021/07/26 07:49:03;;;;;;;9.50;5.60;;;;;;;44.74;15.89;97486.80;127146;1092;62617;-68
2021/07/26 07:51:42;;;;;;;10.20;5.50;;;;;;;45.64;15.46;97485.41;127301;1092;62641;-67
2021/07/26 07:54:18;;;;;;;9.85;5.50;;;;;;;46.37;14.62;97472.90;126978;1092;62614;-71
2021/07/26 07:56:48;;;;;;;8.90;5.50;;;;;;;46.32;14.25;97491.02;126934;1092;62632;-74
2021/07/26 07:59:15;;;;;;;10.23;5.70;;;;;;;45.71;14.65;97490.00;127364;1092;62777;-71
2021/07/26 08:01:43;;;;;;;11.17;5.30;;;;;;;45.97;14.78;97475.42;126949;1092;62639;-70
2021/07/26 08:04:10;;;;;;;8.87;5.77;;;;;;;45.30;15.19;97481.39;126914;1092;62620;-71
2021/07/26 08:06:41;;;;;;;12.58;6.08;;;;;;;44.00;16.32;97471.74;126950;1092;62617;-71
2021/07/26 08:09:10;;;;;;;11.13;5.70;;;;;;;42.98;16.91;97478.63;127066;1092;62600;-70
2021/07/26 08:11:38;;;;;;;14.03;6.17;;;;;;;43.19;17.06;97483.87;126950;1092;62674;-70
2021/07/26 08:14:05;;;;;;;8.50;5.50;;;;;;;43.90;16.16;97477.94;126988;1092;62606;-68
